William P Hobby Airport

KHOU | HOU

Houston , Texas , United States

Sunday, January 26th, 2020 | 19:20

Weather

KHOU 270053Z 02005KT 10SM FEW012 FEW250 21/11 A2993 RMK AO2 SLP141 T02060106

Charts

67 Available

Gates

52 Available

Runways

4 Available

Events

No events for this airport


New event